page 6037 of 1004638 registered users

eBook PostsUsers

  1. 0pilotquiver65 registered @ 2013-02-19 02:32:18, last login @ 2013-02-19 02:32:18
  2. 0song44kidney registered @ 2013-02-19 02:33:12, last login @ 2013-02-19 02:33:12
  3. 0jemtreinta registered @ 2013-02-19 02:33:42, last login @ 2013-02-19 02:33:42
  4. 0tightstemple54 registered @ 2013-02-19 02:35:14, last login @ 2013-02-19 02:35:14
  5. 0coastcost96 registered @ 2013-02-19 02:35:18, last login @ 2013-02-19 02:35:18
  6. 0steam06helen registered @ 2013-02-19 02:35:32, last login @ 2013-02-19 02:35:32
  7. 0atm0shop registered @ 2013-02-19 02:36:37, last login @ 2013-02-19 02:36:37
  8. 0skinriddle1 registered @ 2013-02-19 02:38:32, last login @ 2013-02-19 02:38:32
  9. 0advice9dill registered @ 2013-02-19 02:41:29, last login @ 2013-02-19 02:41:29
  10. 0denim6purple registered @ 2013-02-19 02:42:01, last login @ 2013-02-19 02:42:01
  11. 0budgetjaw40 registered @ 2013-02-19 02:42:38, last login @ 2013-02-19 02:42:38
  12. 0porter00lip registered @ 2013-02-19 02:42:59, last login @ 2013-02-19 02:42:59
  13. 0tyvek8act registered @ 2013-02-19 02:43:42, last login @ 2013-02-19 02:43:42
  14. 0tonguedimple36 registered @ 2013-02-19 02:44:19, last login @ 2013-02-19 02:44:19
  15. 0hour75client registered @ 2013-02-19 02:44:26, last login @ 2013-02-19 02:44:26
  16. 0state96sheet registered @ 2013-02-19 02:44:32, last login @ 2013-02-19 02:44:32
  17. 0wrench61jail registered @ 2013-02-19 02:45:01, last login @ 2013-02-19 02:45:01
  18. 0webgyrl registered @ 2013-02-19 02:45:04, last login @ 2013-02-19 02:45:04
  19. 0storysuede1 registered @ 2013-02-19 02:45:31, last login @ 2013-02-19 02:45:31
  20. 0skirt15select registered @ 2013-02-19 02:45:56, last login @ 2013-02-19 02:45:56
  21. 0creditfarmer98 registered @ 2013-02-19 02:46:30, last login @ 2013-02-19 02:46:30
  22. 0queenwall9 registered @ 2013-02-19 02:46:32, last login @ 2013-02-19 02:46:32
  23. 0stockmarketgraph registered @ 2013-02-19 02:47:08, last login @ 2013-02-19 02:47:08
  24. 0hallpastry9 registered @ 2013-02-19 02:48:25, last login @ 2013-02-19 02:48:25
  25. 0groundcoil13 registered @ 2013-02-19 02:48:56, last login @ 2013-02-19 02:48:56
  26. 0smash71libra registered @ 2013-02-19 02:49:28, last login @ 2013-02-19 02:49:28
  27. 0casebomb3 registered @ 2013-02-19 02:50:13, last login @ 2013-02-19 02:50:13
  28. 0single2scene registered @ 2013-02-19 02:51:40, last login @ 2013-02-19 02:58:14
  29. 0drillbridge4 registered @ 2013-02-19 02:55:12, last login @ 2013-02-19 02:55:12
  30. 0silver5recess registered @ 2013-02-19 02:55:18, last login @ 2013-02-19 02:55:18
  31. 0sariamrza registered @ 2013-02-19 02:55:50, last login @ 2013-02-19 02:55:50
  32. 0sneezewoman79 registered @ 2013-02-19 02:55:50, last login @ 2013-02-19 02:55:50
  33. 0maypunch9 registered @ 2013-02-19 02:55:59, last login @ 2013-02-19 02:55:59
  34. 0geesemale1 registered @ 2013-02-19 02:56:30, last login @ 2013-02-19 02:56:30
  35. 0virgokenya3 registered @ 2013-02-19 02:56:42, last login @ 2013-02-19 02:56:42
  36. 0clerkedger99 registered @ 2013-02-19 02:56:43, last login @ 2013-02-19 02:56:43
  37. 0farmer8clover registered @ 2013-02-19 02:57:01, last login @ 2013-02-19 02:57:01
  38. 0wall91pair registered @ 2013-02-19 02:57:06, last login @ 2013-02-19 02:57:06
  39. 0bath44word registered @ 2013-02-19 02:59:23, last login @ 2013-02-19 02:59:23
  40. 0bowlpuppy4 registered @ 2013-02-19 02:59:46, last login @ 2013-02-19 02:59:46
  41. 0rayjay registered @ 2013-02-19 03:01:50, last login @ 2013-02-19 03:01:50
  42. 0kevin45doubt registered @ 2013-02-19 03:01:53, last login @ 2013-02-19 03:01:53
  43. 0carpbead38 registered @ 2013-02-19 03:03:18, last login @ 2013-02-19 03:03:18
  44. 0bubblejury78 registered @ 2013-02-19 03:03:27, last login @ 2013-02-19 03:03:27
  45. 0tonguearea27 registered @ 2013-02-19 03:07:20, last login @ 2013-02-19 03:07:20
  46. 0snow19dash registered @ 2013-02-19 03:07:42, last login @ 2013-02-19 03:07:42
  47. 0gemini43woman registered @ 2013-02-19 03:07:43, last login @ 2013-02-19 03:07:43
  48. 0voiceera68 registered @ 2013-02-19 03:10:08, last login @ 2013-02-19 03:10:08
  49. 0fearmist7 registered @ 2013-02-19 03:10:45, last login @ 2013-02-19 03:10:45
  50. 0pastorcourt6 registered @ 2013-02-19 03:11:09, last login @ 2013-02-19 03:11:09
  51. 0fridgewallet05 registered @ 2013-02-19 03:11:10, last login @ 2013-02-19 03:11:10
  52. 0openexpert01 registered @ 2013-02-19 03:11:17, last login @ 2013-02-19 03:24:06
  53. 0winegreen1 registered @ 2013-02-19 03:11:26, last login @ 2013-02-19 03:11:26
  54. 0brandharp9 registered @ 2013-02-19 03:12:18, last login @ 2013-02-19 03:12:18
  55. 0frown7moon registered @ 2013-02-19 03:14:24, last login @ 2013-02-19 03:14:24
  56. 0knight9flight registered @ 2013-02-19 03:14:31, last login @ 2013-02-19 03:14:31
  57. 0teamsandra0 registered @ 2013-02-19 03:14:49, last login @ 2013-02-19 03:14:49
  58. 0wrench8bear registered @ 2013-02-19 03:14:49, last login @ 2013-02-19 03:14:49
  59. 0tipphone08 registered @ 2013-02-19 03:16:46, last login @ 2013-02-19 03:16:46
  60. 0seeder05nephew registered @ 2013-02-19 03:16:56, last login @ 2013-02-19 04:00:15
  61. 0lutespace1 registered @ 2013-02-19 03:18:47, last login @ 2013-02-19 03:18:47
  62. 0class2sphynx registered @ 2013-02-19 03:20:19, last login @ 2013-02-19 03:20:19
  63. 0toast5nephew registered @ 2013-02-19 03:22:15, last login @ 2013-02-19 03:22:15
  64. 0squash6shield registered @ 2013-02-19 03:22:36, last login @ 2013-02-19 03:22:36
  65. 0Tony_Sa registered @ 2013-02-19 03:24:07, last login @ 2013-02-19 03:24:07
  66. 0cent6hat registered @ 2013-02-19 03:24:41, last login @ 2013-02-19 03:24:41
  67. 0dogsoda32 registered @ 2013-02-19 03:30:02, last login @ 2013-02-19 03:30:02
  68. 0jury72pigeon registered @ 2013-02-19 03:30:20, last login @ 2013-02-19 03:30:20
  69. 0queen9kitten registered @ 2013-02-19 03:32:43, last login @ 2013-02-19 03:32:43
  70. 0stool9period registered @ 2013-02-19 03:32:49, last login @ 2013-02-19 03:32:49
  71. 0cell7alley registered @ 2013-02-19 03:33:01, last login @ 2013-02-19 03:33:01
  72. 0eye86mother registered @ 2013-02-19 03:33:19, last login @ 2013-02-19 03:33:19
  73. 0living992 registered @ 2013-02-19 03:33:34, last login @ 2013-02-19 03:33:34
  74. 0brand1comma registered @ 2013-02-19 03:33:37, last login @ 2013-02-19 03:33:37
  75. 0zonecause3 registered @ 2013-02-19 03:33:40, last login @ 2013-02-19 03:33:40
  76. 0brain8spear registered @ 2013-02-19 03:35:14, last login @ 2013-02-19 03:35:14
  77. 0SeanBarranco113 registered @ 2013-02-19 03:35:15, last login @ 2013-02-19 03:55:33
  78. 0vestappeal05 registered @ 2013-02-19 03:35:42, last login @ 2013-02-19 03:35:42
  79. 0rooftaiwan75 registered @ 2013-02-19 03:35:59, last login @ 2013-02-19 03:35:59
  80. 0dew63body registered @ 2013-02-19 03:38:38, last login @ 2013-02-19 03:47:44
  81. 0waxllama70 registered @ 2013-02-19 03:38:51, last login @ 2013-02-19 03:38:51
  82. 0borroutle9884 registered @ 2013-02-19 03:39:59, last login @ 2013-02-19 03:39:59
  83. 0staysave registered @ 2013-02-19 03:41:16, last login @ 2013-02-19 03:41:16
  84. 0fanbroker06 registered @ 2013-02-19 03:41:34, last login @ 2013-02-19 03:41:34
  85. 0nerve42engine registered @ 2013-02-19 03:41:43, last login @ 2013-02-19 03:41:43
  86. 0neck8lute registered @ 2013-02-19 03:44:18, last login @ 2013-02-19 03:44:18
  87. 0cratesing5 registered @ 2013-02-19 03:44:29, last login @ 2013-02-19 03:44:29
  88. 0flymp registered @ 2013-02-19 03:45:11, last login @ 2013-02-19 03:54:15
  89. 0officebirch4 registered @ 2013-02-19 03:46:01, last login @ 2013-02-19 03:46:01
  90. 0kick4sense registered @ 2013-02-19 03:46:04, last login @ 2013-02-19 03:46:04
  91. 0space08turkey registered @ 2013-02-19 03:47:19, last login @ 2013-02-19 03:47:19
  92. 0border6gas registered @ 2013-02-19 03:50:34, last login @ 2013-02-19 03:50:34
  93. 0fogrhythm6 registered @ 2013-02-19 03:51:11, last login @ 2013-02-19 03:51:11
  94. 0mathloan07 registered @ 2013-02-19 03:53:02, last login @ 2013-02-19 03:53:02
  95. 0satintray81 registered @ 2013-02-19 03:53:08, last login @ 2013-02-19 03:53:08
  96. 0melcsikecske registered @ 2013-02-19 03:53:54, last login @ 2013-02-19 03:53:54
  97. 0collarspider7 registered @ 2013-02-19 03:54:17, last login @ 2013-02-19 03:54:17
  98. 0costsoda17 registered @ 2013-02-19 03:55:39, last login @ 2013-02-19 03:55:39
  99. 0greencourse92 registered @ 2013-02-19 03:55:40, last login @ 2013-02-19 03:55:40
  100. 0shapecloset38 registered @ 2013-02-19 03:57:30, last login @ 2013-02-19 03:57:30
  101. 0powerrangers61 registered @ 2013-02-19 03:59:38, last login @ 2013-02-19 03:59:38

More...

[6047] [6046] [6045] [6044] [6043] [6042] [6041] [6040] [6039] [6038] [6037] [6036] [6035] [6034] [6033] [6032] [6031] [6030] [6029] [6028] ...[1]
Back to Top